createdAt,value
2022-07-28T00:00:12.893Z,2.70
2022-07-28T00:02:39.865Z,2.72
2022-07-28T00:05:07.849Z,3.20
2022-07-28T00:07:35.148Z,3.30
2022-07-28T00:10:02.366Z,2.83
2022-07-28T00:12:29.382Z,2.90
2022-07-28T00:14:56.768Z,2.97
2022-07-28T00:17:23.979Z,3.53
2022-07-28T00:19:51.017Z,2.88
2022-07-28T00:22:18.987Z,3.17
2022-07-28T00:24:46.286Z,2.88
2022-07-28T00:27:19.285Z,3.25
2022-07-28T00:29:50.249Z,3.20
2022-07-28T00:32:20.459Z,2.87
2022-07-28T00:34:47.963Z,2.80
2022-07-28T00:37:15.227Z,3.20
2022-07-28T00:39:43.616Z,3.45
2022-07-28T00:42:10.839Z,2.90
2022-07-28T00:44:41.792Z,3.47
2022-07-28T00:47:09.406Z,2.70
2022-07-28T00:49:36.456Z,3.88
2022-07-28T00:52:06.305Z,2.78
2022-07-28T00:54:34.606Z,2.50
2022-07-28T00:57:01.787Z,3.33
2022-07-28T00:59:28.870Z,3.20
2022-07-28T01:01:56.632Z,2.92
2022-07-28T01:04:25.046Z,2.92
2022-07-28T01:07:27.003Z,2.90
2022-07-28T01:10:35.057Z,2.67
2022-07-28T01:13:28.898Z,2.83
2022-07-28T01:16:06.548Z,3.13
2022-07-28T01:18:48.069Z,2.67
2022-07-28T01:21:24.137Z,2.63
2022-07-28T01:24:25.290Z,2.45
2022-07-28T01:27:09.979Z,2.75
2022-07-28T01:30:02.991Z,2.15
2022-07-28T01:32:44.265Z,2.85
2022-07-28T01:35:23.523Z,2.67
2022-07-28T01:37:59.683Z,2.75
2022-07-28T01:40:32.661Z,2.33
2022-07-28T01:43:06.083Z,2.45
2022-07-28T01:45:38.165Z,2.58
2022-07-28T01:48:07.013Z,2.55
2022-07-28T01:50:37.153Z,2.42
2022-07-28T01:53:05.027Z,2.58
2022-07-28T01:55:33.687Z,2.40
2022-07-28T01:58:02.728Z,2.28
2022-07-28T02:00:30.878Z,2.80
2022-07-28T02:03:00.766Z,2.72
2022-07-28T02:05:28.800Z,2.20
2022-07-28T02:07:57.564Z,2.80
2022-07-28T02:10:27.439Z,2.50
2022-07-28T02:12:55.575Z,2.60
2022-07-28T02:15:24.162Z,2.72
2022-07-28T02:17:54.139Z,2.45
2022-07-28T02:20:23.478Z,2.40
2022-07-28T02:22:52.327Z,3.40
2022-07-28T02:25:21.482Z,2.00
2022-07-28T02:28:01.673Z,3.30
2022-07-28T02:30:49.871Z,2.45
2022-07-28T02:33:57.775Z,2.58
2022-07-28T02:36:25.855Z,2.20
2022-07-28T02:38:56.741Z,2.43
2022-07-28T02:41:33.592Z,2.17
2022-07-28T02:44:07.748Z,1.90
2022-07-28T02:46:44.749Z,2.80
2022-07-28T02:49:19.279Z,2.20
2022-07-28T02:51:49.282Z,2.28
2022-07-28T02:54:18.514Z,1.90
2022-07-28T02:56:53.294Z,2.45
2022-07-28T02:59:23.387Z,2.13
2022-07-28T03:01:52.341Z,2.30
2022-07-28T03:04:38.422Z,2.05
2022-07-28T03:07:06.738Z,3.25
2022-07-28T03:09:47.352Z,2.75
2022-07-28T03:12:15.181Z,3.03
2022-07-28T03:14:42.181Z,2.30
2022-07-28T03:17:09.919Z,2.22
2022-07-28T03:19:37.334Z,2.03
2022-07-28T03:22:05.490Z,2.35
2022-07-28T03:24:54.777Z,2.50
2022-07-28T03:27:53.003Z,2.35
2022-07-28T03:30:27.934Z,2.20
2022-07-28T03:33:01.645Z,2.03
2022-07-28T03:35:31.533Z,1.98
2022-07-28T03:38:23.909Z,2.15
2022-07-28T03:40:55.009Z,2.22
2022-07-28T03:43:25.582Z,2.50
2022-07-28T03:45:53.108Z,2.22
2022-07-28T03:48:23.483Z,2.08
2022-07-28T03:50:50.707Z,2.42
2022-07-28T03:53:26.374Z,2.05
2022-07-28T03:55:53.967Z,2.85
2022-07-28T03:58:26.210Z,2.67
2022-07-28T04:00:57.085Z,3.28
2022-07-28T04:03:42.615Z,3.72
2022-07-28T04:06:13.149Z,3.40
2022-07-28T04:08:40.538Z,3.42
2022-07-28T04:11:08.306Z,3.08
2022-07-28T04:13:37.145Z,3.13
2022-07-28T04:16:07.197Z,2.80
2022-07-28T04:18:35.603Z,2.50
2022-07-28T04:21:02.742Z,2.75
2022-07-28T04:23:30.895Z,2.92
2022-07-28T04:25:57.932Z,2.53
2022-07-28T04:28:25.445Z,3.10
2022-07-28T04:30:52.573Z,2.22
2022-07-28T04:33:20.690Z,2.38
2022-07-28T04:35:47.841Z,3.13
2022-07-28T04:38:17.280Z,2.72
2022-07-28T04:40:44.402Z,2.30
2022-07-28T04:43:11.532Z,2.28
2022-07-28T04:45:38.762Z,2.05
2022-07-28T04:48:14.284Z,2.47
2022-07-28T04:50:45.609Z,2.50
2022-07-28T04:53:13.624Z,2.10
2022-07-28T04:55:40.723Z,1.58
2022-07-28T04:58:09.268Z,1.75
2022-07-28T05:00:36.588Z,2.10
2022-07-28T05:03:04.419Z,2.67
2022-07-28T05:05:31.435Z,1.60
2022-07-28T05:07:58.586Z,1.75
2022-07-28T05:10:25.725Z,1.90
2022-07-28T05:12:54.484Z,1.67
2022-07-28T05:15:21.600Z,1.80
2022-07-28T05:17:49.955Z,1.50
2022-07-28T05:20:17.469Z,1.88
2022-07-28T05:22:53.810Z,1.88
2022-07-28T05:25:23.718Z,1.63
2022-07-28T05:27:51.995Z,1.50
2022-07-28T05:30:19.526Z,1.55
2022-07-28T05:32:48.058Z,1.58
2022-07-28T05:35:15.572Z,1.50
2022-07-28T05:37:43.826Z,1.52
2022-07-28T05:40:15.530Z,2.28
2022-07-28T05:42:47.882Z,1.73
2022-07-28T05:45:17.594Z,2.10
2022-07-28T05:47:52.765Z,1.65
2022-07-28T05:50:23.017Z,1.90
2022-07-28T05:52:51.307Z,1.65
2022-07-28T05:55:19.060Z,1.60
2022-07-28T05:57:46.652Z,1.80
2022-07-28T06:00:23.212Z,1.35
2022-07-28T06:02:50.970Z,1.27
2022-07-28T06:05:20.876Z,1.50
2022-07-28T06:07:50.612Z,1.83
2022-07-28T06:10:21.258Z,1.80
2022-07-28T06:12:52.061Z,1.17
2022-07-28T06:15:28.273Z,1.60
2022-07-28T06:17:56.027Z,1.55
2022-07-28T06:20:25.268Z,1.75
2022-07-28T06:22:55.070Z,2.03
2022-07-28T06:25:25.959Z,1.98
2022-07-28T06:27:59.814Z,1.30
2022-07-28T06:30:27.826Z,2.20
2022-07-28T06:32:56.573Z,1.55
2022-07-28T06:35:24.222Z,2.05
2022-07-28T06:37:52.782Z,1.63
2022-07-28T06:40:21.181Z,1.35
2022-07-28T06:42:49.521Z,1.35
2022-07-28T06:45:20.870Z,1.70
2022-07-28T06:47:53.215Z,1.95
2022-07-28T06:50:25.002Z,1.50
2022-07-28T06:52:57.217Z,1.40
2022-07-28T06:55:34.670Z,1.50
2022-07-28T06:58:03.855Z,1.90
2022-07-28T07:00:31.275Z,1.67
2022-07-28T07:02:58.402Z,1.63
2022-07-28T07:05:26.331Z,1.90
2022-07-28T07:07:53.293Z,1.63
2022-07-28T07:10:20.436Z,1.63
2022-07-28T07:12:47.453Z,1.50
2022-07-28T07:15:14.499Z,2.00
2022-07-28T07:17:42.471Z,1.60
2022-07-28T07:20:10.891Z,1.48
2022-07-28T07:22:47.749Z,1.38
2022-07-28T07:25:18.387Z,1.40
2022-07-28T07:27:46.166Z,1.50
2022-07-28T07:30:19.099Z,1.42
2022-07-28T07:32:46.135Z,1.40
2022-07-28T07:35:13.425Z,1.85
2022-07-28T07:37:40.872Z,1.35
2022-07-28T07:40:09.511Z,1.60
2022-07-28T07:42:37.112Z,2.58
2022-07-28T07:45:04.985Z,1.40
2022-07-28T07:47:31.945Z,1.75
2022-07-28T07:50:01.780Z,1.25
2022-07-28T07:52:30.739Z,1.40
2022-07-28T07:54:57.843Z,1.65
2022-07-28T07:57:24.968Z,1.35
2022-07-28T07:59:52.104Z,1.10
2022-07-28T08:02:19.129Z,1.60
2022-07-28T08:04:46.250Z,1.65
2022-07-28T08:07:14.907Z,1.40
2022-07-28T08:09:41.933Z,1.60
2022-07-28T08:12:09.334Z,1.40
2022-07-28T08:14:36.512Z,1.83
2022-07-28T08:17:03.534Z,1.52
2022-07-28T08:19:30.536Z,1.30
2022-07-28T08:21:57.541Z,1.65
2022-07-28T08:24:27.636Z,1.50
2022-07-28T08:27:02.496Z,1.80
2022-07-28T08:29:30.055Z,1.27
2022-07-28T08:31:57.713Z,1.55
2022-07-28T08:34:31.615Z,1.70
2022-07-28T08:37:03.869Z,1.33
2022-07-28T08:39:36.064Z,1.20
2022-07-28T08:42:24.622Z,1.30
2022-07-28T08:44:58.470Z,1.33
2022-07-28T08:47:40.715Z,1.98
2022-07-28T08:50:14.244Z,1.55
2022-07-28T08:52:45.511Z,1.20
2022-07-28T08:55:19.464Z,1.50
2022-07-28T08:57:47.383Z,1.67
2022-07-28T09:00:15.035Z,1.42
2022-07-28T09:02:46.500Z,1.17
2022-07-28T09:05:24.593Z,1.42
2022-07-28T09:07:55.637Z,1.30
2022-07-28T09:10:23.515Z,1.30
2022-07-28T09:12:51.538Z,1.00
2022-07-28T09:15:19.865Z,1.23
2022-07-28T09:17:46.990Z,1.30
2022-07-28T09:20:17.039Z,1.10
2022-07-28T09:23:03.426Z,1.30
2022-07-28T09:25:31.506Z,1.15
2022-07-28T09:28:14.188Z,1.40
2022-07-28T09:30:53.331Z,1.40
2022-07-28T09:33:41.302Z,1.42
2022-07-28T09:36:16.193Z,1.55
2022-07-28T09:38:44.771Z,1.50
2022-07-28T09:41:12.473Z,1.60
2022-07-28T09:43:43.396Z,1.13
2022-07-28T09:46:20.568Z,1.23
2022-07-28T09:48:51.171Z,1.42
2022-07-28T09:51:24.318Z,1.65
2022-07-28T09:53:52.577Z,1.48
2022-07-28T09:56:20.102Z,1.40
2022-07-28T09:58:59.313Z,1.27
2022-07-28T10:01:29.242Z,1.33
2022-07-28T10:04:04.258Z,1.75
2022-07-28T10:06:35.769Z,1.27
2022-07-28T10:09:07.871Z,1.23
2022-07-28T10:11:41.090Z,1.10
2022-07-28T10:14:08.758Z,1.40
2022-07-28T10:16:42.972Z,1.30
2022-07-28T10:19:10.099Z,1.42
2022-07-28T10:21:45.765Z,1.15
2022-07-28T10:24:22.962Z,1.35
2022-07-28T10:26:52.745Z,1.58
2022-07-28T10:29:22.641Z,1.20
2022-07-28T10:31:53.321Z,1.38
2022-07-28T10:34:39.295Z,0.98
2022-07-28T10:37:23.046Z,1.52
2022-07-28T10:40:10.878Z,1.20
2022-07-28T10:42:43.744Z,1.20
2022-07-28T10:45:12.114Z,1.20
2022-07-28T10:47:39.986Z,1.35
2022-07-28T10:50:08.722Z,1.20
2022-07-28T10:52:48.153Z,1.30
2022-07-28T10:55:55.142Z,1.25
2022-07-28T10:58:46.033Z,1.52
2022-07-28T11:01:49.673Z,1.38
2022-07-28T11:04:46.318Z,1.35
2022-07-28T11:07:20.076Z,1.50
2022-07-28T11:09:47.991Z,1.10
2022-07-28T11:12:16.094Z,1.35
2022-07-28T11:14:44.933Z,1.30
2022-07-28T11:17:13.054Z,1.38
2022-07-28T11:22:34.829Z,1.30
2022-07-28T11:25:19.578Z,1.52
2022-07-28T11:27:51.878Z,1.40
2022-07-28T11:30:28.907Z,1.60
2022-07-28T11:32:56.943Z,1.17
2022-07-28T11:35:26.474Z,1.50
2022-07-28T11:38:04.940Z,1.25
2022-07-28T11:40:33.729Z,1.65
2022-07-28T11:43:36.876Z,1.27
2022-07-28T11:46:07.724Z,1.65
2022-07-28T11:48:41.591Z,1.27
2022-07-28T11:51:13.012Z,1.40
2022-07-28T11:53:46.850Z,1.30
2022-07-28T11:56:38.098Z,1.63
2022-07-28T11:59:11.158Z,1.33
2022-07-28T12:01:38.848Z,1.13
2022-07-28T12:04:14.399Z,1.60
2022-07-28T12:06:43.107Z,1.40
2022-07-28T12:09:13.132Z,1.38
2022-07-28T12:11:41.832Z,1.33
2022-07-28T12:14:16.994Z,1.73
2022-07-28T12:16:49.764Z,1.45
2022-07-28T12:19:19.272Z,1.45
2022-07-28T12:21:55.558Z,1.63
2022-07-28T12:24:45.562Z,1.25
2022-07-28T12:27:15.211Z,1.50
2022-07-28T12:29:42.979Z,1.67
2022-07-28T12:32:10.597Z,1.83
2022-07-28T12:34:40.503Z,1.98
2022-07-28T12:37:12.265Z,1.40
2022-07-28T12:42:13.039Z,1.30
2022-07-28T12:44:43.746Z,1.50
2022-07-28T12:47:13.957Z,1.40
2022-07-28T12:49:41.848Z,1.30
2022-07-28T12:52:23.788Z,1.50
2022-07-28T12:54:55.625Z,1.45
2022-07-28T12:57:49.312Z,1.25
2022-07-28T13:00:24.417Z,1.40
2022-07-28T13:02:56.041Z,1.50
2022-07-28T13:05:58.412Z,1.40
2022-07-28T13:08:29.287Z,1.30
2022-07-28T13:10:58.857Z,1.58
2022-07-28T13:13:27.325Z,1.27
2022-07-28T13:16:18.307Z,1.20
2022-07-28T13:19:13.471Z,1.05
2022-07-28T13:21:57.716Z,1.50
2022-07-28T13:24:28.609Z,1.20
2022-07-28T13:26:56.841Z,1.52
2022-07-28T13:29:24.366Z,1.10
2022-07-28T13:31:56.679Z,1.20
2022-07-28T13:34:23.805Z,1.20
2022-07-28T13:36:52.409Z,1.33
2022-07-28T13:39:19.449Z,1.10
2022-07-28T13:41:58.304Z,1.50
2022-07-28T13:44:31.677Z,0.95
2022-07-28T13:47:00.632Z,1.63
2022-07-28T13:49:31.522Z,1.20
2022-07-28T13:52:00.175Z,1.27
2022-07-28T13:54:28.095Z,0.98
2022-07-28T13:57:15.331Z,1.10
2022-07-28T13:59:43.883Z,1.00
2022-07-28T14:02:15.868Z,1.33
2022-07-28T14:04:45.934Z,1.58
2022-07-28T14:07:22.080Z,1.30
2022-07-28T14:12:18.436Z,0.90
2022-07-28T14:14:48.021Z,1.20
2022-07-28T14:20:11.031Z,1.55
2022-07-28T14:22:38.098Z,1.38
2022-07-28T14:25:05.731Z,1.52
2022-07-28T14:27:33.397Z,1.30
2022-07-28T14:30:03.711Z,1.30
2022-07-28T14:32:32.261Z,1.00
2022-07-28T14:34:59.398Z,1.08
2022-07-28T14:37:26.574Z,2.13
2022-07-28T14:39:53.644Z,1.20
2022-07-28T14:42:20.691Z,1.60
2022-07-28T14:44:47.836Z,1.85
2022-07-28T14:47:15.614Z,1.90
2022-07-28T14:49:57.104Z,1.20
2022-07-28T14:52:27.239Z,1.30
2022-07-28T14:54:58.154Z,1.38
2022-07-28T14:57:50.215Z,1.20
2022-07-28T15:00:17.573Z,1.27
2022-07-28T15:02:45.671Z,1.70
2022-07-28T15:05:13.351Z,1.20
2022-07-28T15:07:42.329Z,1.35
2022-07-28T15:10:10.665Z,1.40
2022-07-28T15:12:38.043Z,1.65
2022-07-28T15:15:05.941Z,1.25
2022-07-28T15:17:33.933Z,1.17
2022-07-28T15:20:01.393Z,1.27
2022-07-28T15:22:28.564Z,1.30
2022-07-28T15:24:55.534Z,1.50
2022-07-28T15:27:23.692Z,0.98
2022-07-28T15:29:52.226Z,2.25
2022-07-28T15:32:27.142Z,2.10
2022-07-28T15:34:55.686Z,1.30
2022-07-28T15:37:23.146Z,1.15
2022-07-28T15:39:50.308Z,1.50
2022-07-28T15:42:17.585Z,1.38
2022-07-28T15:44:44.597Z,1.45
2022-07-28T15:47:11.613Z,1.50
2022-07-28T15:49:38.696Z,1.27
2022-07-28T15:52:06.092Z,1.50
2022-07-28T15:54:33.178Z,1.40
2022-07-28T15:57:00.184Z,1.33
2022-07-28T15:59:49.286Z,1.90
2022-07-28T16:02:17.495Z,1.10
2022-07-28T16:04:54.523Z,1.60
2022-07-28T16:07:23.688Z,1.50
2022-07-28T16:09:54.896Z,1.30
2022-07-28T16:12:25.439Z,1.30
2022-07-28T16:14:56.694Z,1.40
2022-07-28T16:17:25.412Z,1.13
2022-07-28T16:19:53.849Z,0.90
2022-07-28T16:22:21.974Z,1.27
2022-07-28T16:24:50.827Z,1.20
2022-07-28T16:27:18.959Z,1.20
2022-07-28T16:29:46.043Z,1.40
2022-07-28T16:32:13.248Z,1.15
2022-07-28T16:34:40.991Z,1.10
2022-07-28T16:37:08.457Z,1.55
2022-07-28T16:39:36.094Z,1.48
2022-07-28T16:42:03.396Z,1.95
2022-07-28T16:44:31.238Z,1.50
2022-07-28T16:46:58.931Z,0.98
2022-07-28T16:49:26.083Z,1.10
2022-07-28T16:51:54.763Z,1.13
2022-07-28T16:54:22.883Z,1.20
2022-07-28T16:56:50.847Z,1.45
2022-07-28T16:59:17.998Z,1.13
2022-07-28T17:01:46.389Z,0.85
2022-07-28T17:04:16.400Z,1.70
2022-07-28T17:06:43.755Z,1.02
2022-07-28T17:09:11.595Z,1.55
2022-07-28T17:11:38.928Z,2.10
2022-07-28T17:14:05.917Z,1.67
2022-07-28T17:16:33.235Z,1.42
2022-07-28T17:19:00.717Z,1.70
2022-07-28T17:21:27.902Z,1.33
2022-07-28T17:23:55.284Z,1.40
2022-07-28T17:29:12.787Z,1.45
2022-07-28T17:31:39.824Z,1.33
2022-07-28T17:34:08.984Z,1.50
2022-07-28T17:36:36.383Z,1.48
2022-07-28T17:39:07.090Z,1.30
2022-07-28T17:41:34.887Z,1.10
2022-07-28T17:44:02.488Z,1.27
2022-07-28T17:46:30.038Z,1.20
2022-07-28T17:48:58.721Z,1.38
2022-07-28T17:51:27.569Z,1.17
2022-07-28T17:53:55.625Z,1.15
2022-07-28T17:56:22.912Z,1.10
2022-07-28T17:58:50.086Z,1.27
2022-07-28T18:01:17.185Z,0.88
2022-07-28T18:03:57.691Z,1.73
2022-07-28T18:06:36.041Z,1.55
2022-07-28T18:09:12.097Z,1.00
2022-07-28T18:11:57.165Z,0.88
2022-07-28T18:14:27.771Z,1.42
2022-07-28T18:16:55.513Z,1.30
2022-07-28T18:19:22.798Z,2.10
2022-07-28T18:21:49.967Z,1.45
2022-07-28T18:24:18.044Z,1.40
2022-07-28T18:26:45.515Z,1.45
2022-07-28T18:29:12.534Z,1.52
2022-07-28T18:31:45.830Z,2.58
2022-07-28T18:34:14.112Z,2.00
2022-07-28T18:36:41.400Z,1.50
2022-07-28T18:39:08.687Z,1.95
2022-07-28T18:41:46.257Z,1.70
2022-07-28T18:44:19.478Z,1.70
2022-07-28T18:46:47.661Z,2.10
2022-07-28T18:49:15.766Z,1.85
2022-07-28T18:51:45.169Z,1.73
2022-07-28T18:54:17.359Z,1.65
2022-07-28T18:56:45.872Z,1.30
2022-07-28T18:59:12.938Z,1.85
2022-07-28T19:01:39.994Z,1.38
2022-07-28T19:04:07.122Z,1.45
2022-07-28T19:06:35.295Z,1.45
2022-07-28T19:09:02.759Z,2.13
2022-07-28T19:11:32.181Z,2.40
2022-07-28T19:14:00.415Z,1.77
2022-07-28T19:16:27.503Z,1.88
2022-07-28T19:18:54.741Z,1.40
2022-07-28T19:21:21.766Z,1.50
2022-07-28T19:23:49.276Z,1.67
2022-07-28T19:26:16.755Z,1.98
2022-07-28T19:28:44.503Z,2.35
2022-07-28T19:31:11.746Z,1.73
2022-07-28T19:33:42.978Z,2.30
2022-07-28T19:36:13.891Z,2.00
2022-07-28T19:38:41.371Z,2.28
2022-07-28T19:41:09.935Z,2.80
2022-07-28T19:43:37.522Z,2.63
2022-07-28T19:46:05.254Z,2.40
2022-07-28T19:48:32.421Z,3.85
2022-07-28T19:51:00.033Z,3.33
2022-07-28T19:53:31.907Z,2.80
2022-07-28T19:55:59.692Z,2.17
2022-07-28T19:58:26.764Z,2.58
2022-07-28T20:00:56.698Z,2.40
2022-07-28T20:04:00.878Z,2.70
2022-07-28T20:06:12.699Z,2.30
2022-07-28T20:08:40.152Z,1.65
2022-07-28T20:11:08.199Z,2.20
2022-07-28T20:13:35.684Z,2.47
2022-07-28T20:16:02.695Z,2.65
2022-07-28T20:18:29.716Z,1.98
2022-07-28T20:21:06.256Z,2.10
2022-07-28T20:23:33.510Z,1.80
2022-07-28T20:26:00.690Z,2.25
2022-07-28T20:28:27.840Z,2.97
2022-07-28T20:30:55.104Z,1.88
2022-07-28T20:33:22.239Z,2.38
2022-07-28T20:35:50.099Z,2.15
2022-07-28T20:38:23.341Z,2.40
2022-07-28T20:40:51.713Z,1.60
2022-07-28T20:43:18.850Z,1.88
2022-07-28T20:45:46.596Z,2.17
2022-07-28T20:48:14.607Z,2.53
2022-07-28T20:50:42.821Z,1.95
2022-07-28T20:53:10.585Z,2.03
2022-07-28T20:55:38.081Z,2.03
2022-07-28T20:58:06.115Z,2.13
2022-07-28T21:00:33.648Z,2.55
2022-07-28T21:03:00.894Z,2.03
2022-07-28T21:05:34.924Z,2.45
2022-07-28T21:08:06.464Z,2.22
2022-07-28T21:10:37.113Z,2.17
2022-07-28T21:13:04.442Z,2.08
2022-07-28T21:15:31.836Z,2.00
2022-07-28T21:17:59.814Z,2.05
2022-07-28T21:20:27.113Z,2.30
2022-07-28T21:22:54.581Z,2.25
2022-07-28T21:25:22.813Z,1.92
2022-07-28T21:28:08.791Z,1.83
2022-07-28T21:30:37.088Z,1.73
2022-07-28T21:33:04.299Z,2.53
2022-07-28T21:35:31.515Z,1.92
2022-07-28T21:37:58.569Z,2.22
2022-07-28T21:40:26.382Z,3.63
2022-07-28T21:42:53.609Z,4.75
2022-07-28T21:45:21.275Z,3.58
2022-07-28T21:47:48.899Z,4.00
2022-07-28T21:50:16.266Z,2.70
2022-07-28T21:52:43.574Z,2.80
2022-07-28T21:55:10.810Z,2.40
2022-07-28T21:57:38.219Z,2.03
2022-07-28T22:00:09.095Z,1.73
2022-07-28T22:02:36.278Z,1.85
2022-07-28T22:05:05.041Z,1.52
2022-07-28T22:07:32.287Z,1.95
2022-07-28T22:09:59.342Z,1.70
2022-07-28T22:12:26.323Z,1.52
2022-07-28T22:14:53.373Z,1.50
2022-07-28T22:17:20.560Z,1.67
2022-07-28T22:19:47.673Z,1.60
2022-07-28T22:22:18.266Z,1.70
2022-07-28T22:24:46.136Z,1.40
2022-07-28T22:27:13.396Z,1.73
2022-07-28T22:29:40.413Z,2.03
2022-07-28T22:32:26.657Z,1.38
2022-07-28T22:34:58.157Z,2.33
2022-07-28T22:37:25.433Z,1.60
2022-07-28T22:39:55.704Z,1.70
2022-07-28T22:42:22.875Z,1.33
2022-07-28T22:44:50.083Z,1.65
2022-07-28T22:47:17.171Z,1.55
2022-07-28T22:49:44.275Z,1.35
2022-07-28T22:52:11.402Z,1.38
2022-07-28T22:54:39.976Z,1.17
2022-07-28T22:57:58.058Z,1.58
2022-07-28T23:00:26.877Z,1.40
2022-07-28T23:02:55.116Z,1.40
2022-07-28T23:05:22.591Z,1.77
2022-07-28T23:07:51.126Z,1.90
2022-07-28T23:10:20.731Z,1.30
2022-07-28T23:12:47.794Z,1.45
2022-07-28T23:15:14.794Z,1.55
2022-07-28T23:17:41.949Z,1.88
2022-07-28T23:20:10.105Z,1.67
2022-07-28T23:22:38.022Z,1.50
2022-07-28T23:25:05.774Z,1.90
2022-07-28T23:27:32.856Z,1.20
2022-07-28T23:29:59.996Z,1.40
2022-07-28T23:32:27.052Z,1.52
2022-07-28T23:34:54.241Z,1.73
2022-07-28T23:37:21.342Z,1.50
2022-07-28T23:39:48.464Z,1.20
2022-07-28T23:42:16.402Z,1.75
2022-07-28T23:44:43.501Z,1.70
2022-07-28T23:47:10.769Z,1.13
2022-07-28T23:49:37.912Z,1.13
2022-07-28T23:52:05.418Z,1.20
2022-07-28T23:54:32.631Z,1.30
2022-07-28T23:56:59.730Z,1.38
2022-07-28T23:59:26.775Z,1.23
